createdAt,value
2018-01-11T00:00:30.798Z,23.10
2018-01-11T00:02:59.064Z,24.47
2018-01-11T00:05:26.562Z,22.60
2018-01-11T00:07:54.082Z,23.47
2018-01-11T00:10:21.578Z,24.33
2018-01-11T00:12:49.093Z,23.23
2018-01-11T00:15:16.594Z,22.83
2018-01-11T00:17:44.113Z,22.80
2018-01-11T00:20:11.605Z,23.40
2018-01-11T00:22:39.106Z,23.27
2018-01-11T00:25:06.621Z,23.57
2018-01-11T00:27:34.881Z,22.93
2018-01-11T00:30:02.774Z,22.60
2018-01-11T00:32:30.266Z,22.60
2018-01-11T00:34:57.762Z,22.93
2018-01-11T00:37:25.283Z,23.40
2018-01-11T00:39:52.773Z,23.00
2018-01-11T00:42:20.290Z,22.83
2018-01-11T00:44:47.786Z,21.50
2018-01-11T00:47:15.307Z,21.20
2018-01-11T00:49:42.801Z,22.37
2018-01-11T00:52:10.325Z,21.60
2018-01-11T00:54:37.813Z,21.77
2018-01-11T00:57:05.306Z,21.20
2018-01-11T00:59:32.827Z,21.70
2018-01-11T01:02:00.318Z,20.67
2018-01-11T01:04:28.602Z,21.20
2018-01-11T01:06:56.862Z,21.60
2018-01-11T01:09:25.146Z,20.83
2018-01-11T01:11:53.413Z,21.07
2018-01-11T01:14:21.690Z,21.30
2018-01-11T01:16:49.954Z,20.83
2018-01-11T01:19:17.485Z,21.57
2018-01-11T01:21:44.983Z,20.43
2018-01-11T01:24:13.238Z,21.20
2018-01-11T01:26:40.758Z,21.00
2018-01-11T01:29:08.253Z,21.93
2018-01-11T01:31:35.774Z,20.63
2018-01-11T01:34:03.274Z,20.83
2018-01-11T01:36:30.774Z,21.30
2018-01-11T01:38:58.289Z,21.00
2018-01-11T01:41:25.777Z,21.20
2018-01-11T01:43:54.058Z,19.87
2018-01-11T01:46:22.326Z,19.07
2018-01-11T01:48:50.610Z,20.20
2018-01-11T01:51:18.874Z,19.70
2018-01-11T01:53:47.137Z,19.30
2018-01-11T01:56:14.654Z,19.63
2018-01-11T01:58:42.145Z,19.00
2018-01-11T02:01:09.662Z,20.10
2018-01-11T02:03:37.161Z,19.40
2018-01-11T02:06:04.657Z,18.70
2018-01-11T02:08:32.177Z,20.30
2018-01-11T02:10:59.678Z,19.07
2018-01-11T02:13:27.198Z,19.03
2018-01-11T02:15:54.698Z,20.20
2018-01-11T02:18:22.224Z,19.30
2018-01-11T02:20:49.713Z,19.07
2018-01-11T02:23:17.206Z,18.27
2018-01-11T02:25:44.722Z,18.97
2018-01-11T02:28:12.986Z,18.60
2018-01-11T02:30:41.270Z,19.17
2018-01-11T02:33:09.530Z,18.83
2018-01-11T02:35:37.046Z,18.30
2018-01-11T02:38:04.563Z,19.60
2018-01-11T02:40:32.826Z,19.00
2018-01-11T02:43:01.110Z,19.57
2018-01-11T02:45:29.370Z,18.10
2018-01-11T02:47:56.881Z,19.50
2018-01-11T02:50:24.373Z,18.77
2018-01-11T02:52:51.893Z,18.63
2018-01-11T02:55:19.390Z,17.80
2018-01-11T02:57:46.910Z,18.10
2018-01-11T03:00:14.414Z,17.87
2018-01-11T03:02:41.919Z,17.80
2018-01-11T03:05:09.441Z,18.07
2018-01-11T03:07:36.934Z,17.67
2018-01-11T03:10:04.458Z,17.80
2018-01-11T03:12:31.954Z,17.30
2018-01-11T03:14:59.469Z,18.00
2018-01-11T03:17:26.961Z,18.20
2018-01-11T03:19:54.475Z,17.53
2018-01-11T03:22:21.973Z,18.53
2018-01-11T03:24:50.232Z,17.80
2018-01-11T03:27:18.514Z,17.27
2018-01-11T03:29:46.773Z,16.80
2018-01-11T03:32:14.290Z,16.97
2018-01-11T03:34:41.790Z,17.23
2018-01-11T03:37:09.312Z,17.40
2018-01-11T03:39:36.806Z,18.00
2018-01-11T03:42:04.326Z,16.90
2018-01-11T03:44:31.826Z,18.17
2018-01-11T03:46:59.329Z,17.70
2018-01-11T03:49:26.854Z,17.17
2018-01-11T03:51:55.119Z,17.10
2018-01-11T03:54:22.642Z,17.67
2018-01-11T03:56:50.146Z,17.40
2018-01-11T03:59:18.438Z,17.00
2018-01-11T04:01:46.702Z,17.57
2018-01-11T04:04:14.227Z,16.47
2018-01-11T04:06:41.726Z,16.00
2018-01-11T04:09:10.017Z,16.80
2018-01-11T04:11:37.527Z,16.67
2018-01-11T04:14:05.028Z,15.83
2018-01-11T04:16:32.554Z,17.37
2018-01-11T04:19:00.056Z,16.20
2018-01-11T04:21:27.578Z,16.10
2018-01-11T04:23:55.078Z,16.40
2018-01-11T04:26:22.606Z,15.40
2018-01-11T04:28:50.870Z,16.70
2018-01-11T04:31:18.394Z,15.47
2018-01-11T04:33:45.894Z,16.27
2018-01-11T04:36:14.159Z,14.80
2018-01-11T04:38:41.684Z,14.80
2018-01-11T04:41:09.183Z,15.70
2018-01-11T04:43:36.714Z,14.97
2018-01-11T04:46:04.982Z,14.93
2018-01-11T04:48:32.503Z,14.20
2018-01-11T04:51:00.003Z,14.87
2018-01-11T04:53:27.531Z,14.13
2018-01-11T04:55:55.036Z,15.47
2018-01-11T04:58:22.534Z,16.57
2018-01-11T05:00:54.555Z,15.77
2018-01-11T05:03:22.054Z,15.20
2018-01-11T05:05:50.349Z,15.90
2018-01-11T05:08:17.849Z,15.97
2018-01-11T05:10:46.142Z,14.77
2018-01-11T05:13:13.642Z,14.90
2018-01-11T05:15:41.166Z,15.53
2018-01-11T05:18:08.666Z,15.40
2018-01-11T05:20:36.167Z,17.50
2018-01-11T05:23:03.690Z,19.20
2018-01-11T05:25:31.194Z,20.20
2018-01-11T05:27:58.714Z,16.93
2018-01-11T05:30:26.219Z,15.07
2018-01-11T05:32:54.507Z,14.70
2018-01-11T05:35:22.770Z,15.63
2018-01-11T05:37:51.062Z,22.97
2018-01-11T05:40:18.563Z,17.47
2018-01-11T05:42:46.091Z,14.33
2018-01-11T05:45:13.590Z,15.90
2018-01-11T05:47:41.863Z,16.53
2018-01-11T05:50:09.388Z,15.20
2018-01-11T05:52:36.894Z,14.63
2018-01-11T05:55:04.424Z,13.93
2018-01-11T05:57:31.922Z,15.00
2018-01-11T05:59:59.442Z,15.27
2018-01-11T06:02:26.944Z,13.90
2018-01-11T06:04:54.470Z,14.97
2018-01-11T06:07:21.975Z,15.60
2018-01-11T06:09:50.246Z,16.13
2018-01-11T06:12:18.535Z,14.93
2018-01-11T06:14:46.799Z,15.00
2018-01-11T06:17:15.086Z,14.20
2018-01-11T06:19:43.350Z,15.57
2018-01-11T06:22:10.871Z,16.30
2018-01-11T06:24:38.375Z,16.00
2018-01-11T06:27:06.667Z,14.80
2018-01-11T06:29:34.166Z,13.70
2018-01-11T06:32:01.665Z,15.47
2018-01-11T06:34:30.010Z,15.13
2018-01-11T06:36:57.474Z,15.20
2018-01-11T06:39:25.326Z,15.67
2018-01-11T06:41:53.595Z,14.30
2018-01-11T06:44:21.130Z,14.60
2018-01-11T06:46:48.636Z,13.50
2018-01-11T06:49:16.162Z,14.20
2018-01-11T06:51:43.664Z,13.80
2018-01-11T06:54:11.167Z,14.80
2018-01-11T06:56:38.690Z,15.67
2018-01-11T06:59:06.954Z,15.07
2018-01-11T07:01:34.478Z,15.03
2018-01-11T07:04:01.975Z,14.37
2018-01-11T07:06:29.503Z,14.80
2018-01-11T07:08:57.007Z,15.07
2018-01-11T07:11:25.270Z,12.90
2018-01-11T07:13:53.563Z,14.37
2018-01-11T07:16:21.831Z,14.97
2018-01-11T07:18:50.119Z,15.20
2018-01-11T07:21:18.383Z,14.33
2018-01-11T07:23:46.675Z,14.30
2018-01-11T07:26:14.175Z,14.77
2018-01-11T07:28:41.726Z,14.27
2018-01-11T07:31:09.219Z,14.13
2018-01-11T07:33:36.724Z,13.90
2018-01-11T07:36:04.251Z,14.70
2018-01-11T07:38:32.522Z,14.67
2018-01-11T07:41:00.049Z,14.10
2018-01-11T07:43:27.551Z,14.90
2018-01-11T07:45:55.839Z,14.97
2018-01-11T07:48:23.342Z,14.60
2018-01-11T07:50:50.862Z,14.67
2018-01-11T07:53:18.366Z,14.00
2018-01-11T07:55:45.871Z,14.67
2018-01-11T07:58:13.400Z,14.83
2018-01-11T08:00:40.905Z,16.20
2018-01-11T08:03:08.426Z,32.40
2018-01-11T08:05:36.702Z,48.20
2018-01-11T08:08:04.227Z,31.30
2018-01-11T08:10:31.726Z,30.00
2018-01-11T08:12:59.991Z,24.17
2018-01-11T08:15:27.514Z,23.07
2018-01-11T08:17:55.015Z,16.97
2018-01-11T08:20:23.303Z,16.57
2018-01-11T08:22:51.567Z,15.43
2018-01-11T08:25:19.854Z,15.87
2018-01-11T08:27:48.298Z,15.37
2018-01-11T08:30:15.807Z,15.90
2018-01-11T08:32:44.302Z,14.77
2018-01-11T08:35:11.807Z,15.73
2018-01-11T08:37:39.331Z,14.93
2018-01-11T08:40:06.836Z,15.40
2018-01-11T08:42:35.127Z,15.57
2018-01-11T08:45:03.394Z,15.70
2018-01-11T08:47:31.662Z,15.43
2018-01-11T08:49:59.186Z,15.37
2018-01-11T08:52:26.682Z,16.60
2018-01-11T08:54:54.980Z,16.97
2018-01-11T08:57:22.478Z,17.33
2018-01-11T08:59:50.003Z,16.20
2018-01-11T09:02:17.502Z,15.23
2018-01-11T09:04:44.998Z,17.10
2018-01-11T09:07:13.291Z,16.20
2018-01-11T09:09:40.791Z,17.90
2018-01-11T09:12:08.316Z,15.77
2018-01-11T09:14:35.830Z,17.50
2018-01-11T09:17:04.130Z,16.60
2018-01-11T09:19:32.396Z,17.13
2018-01-11T09:21:59.894Z,16.13
2018-01-11T09:24:27.415Z,17.17
2018-01-11T09:26:55.683Z,16.63
2018-01-11T09:29:24.548Z,16.40
2018-01-11T09:31:52.055Z,16.23
2018-01-11T09:34:20.348Z,17.67
2018-01-11T09:36:47.852Z,16.27
2018-01-11T09:39:15.356Z,15.87
2018-01-11T09:41:42.885Z,16.53
2018-01-11T09:44:10.386Z,16.10
2018-01-11T09:46:37.908Z,17.30
2018-01-11T09:49:06.176Z,16.47
2018-01-11T09:51:33.699Z,17.03
2018-01-11T09:54:01.199Z,16.47
2018-01-11T09:56:29.470Z,16.87
2018-01-11T09:58:56.990Z,15.90
2018-01-11T10:01:24.490Z,16.20
2018-01-11T10:03:52.011Z,15.77
2018-01-11T10:06:19.511Z,15.90
2018-01-11T10:08:47.798Z,16.10
2018-01-11T10:11:15.299Z,16.00
2018-01-11T10:13:42.803Z,15.83
2018-01-11T10:16:11.090Z,16.13
2018-01-11T10:18:39.358Z,16.50
2018-01-11T10:21:07.653Z,17.20
2018-01-11T10:23:35.166Z,17.23
2018-01-11T10:26:02.686Z,17.57
2018-01-11T10:28:30.191Z,18.00
2018-01-11T10:30:57.727Z,17.33
2018-01-11T10:33:25.227Z,18.17
2018-01-11T10:35:53.491Z,17.73
2018-01-11T10:38:21.014Z,17.90
2018-01-11T10:40:48.514Z,18.67
2018-01-11T10:43:16.081Z,17.60
2018-01-11T10:45:43.563Z,18.80
2018-01-11T10:48:11.088Z,18.27
2018-01-11T10:50:39.358Z,20.00
2018-01-11T10:53:06.883Z,19.50
2018-01-11T10:55:34.386Z,19.10
2018-01-11T10:58:01.892Z,19.87
2018-01-11T11:00:35.183Z,19.20
2018-01-11T11:03:02.691Z,19.93
2018-01-11T11:05:30.218Z,22.60
2018-01-11T11:07:57.726Z,20.37
2018-01-11T11:10:26.020Z,19.47
2018-01-11T11:12:53.523Z,20.17
2018-01-11T11:15:21.052Z,20.07
2018-01-11T11:17:48.550Z,19.97
2018-01-11T11:20:16.050Z,20.30
2018-01-11T11:22:43.579Z,20.43
2018-01-11T11:25:11.080Z,21.67
2018-01-11T11:27:38.602Z,20.30
2018-01-11T11:30:06.866Z,20.20
2018-01-11T11:32:34.394Z,22.10
2018-01-11T11:35:01.894Z,21.57
2018-01-11T11:37:30.158Z,19.80
2018-01-11T11:39:57.683Z,21.93
2018-01-11T11:42:25.186Z,21.13
2018-01-11T11:44:53.473Z,23.30
2018-01-11T11:47:21.734Z,21.73
2018-01-11T11:49:49.258Z,23.73
2018-01-11T11:52:16.759Z,31.73
2018-01-11T11:54:45.055Z,29.10
2018-01-11T11:57:12.555Z,21.47
2018-01-11T11:59:40.050Z,20.50
2018-01-11T12:02:07.580Z,21.17
2018-01-11T12:04:35.095Z,21.07
2018-01-11T12:07:02.623Z,20.17
2018-01-11T12:09:30.122Z,21.03
2018-01-11T12:11:57.647Z,19.40
2018-01-11T12:14:25.911Z,19.93
2018-01-11T12:16:53.438Z,19.07
2018-01-11T12:19:20.935Z,20.50
2018-01-11T12:21:48.443Z,20.77
2018-01-11T12:24:15.971Z,19.33
2018-01-11T12:26:44.242Z,21.03
2018-01-11T12:29:12.530Z,19.87
2018-01-11T12:31:40.039Z,19.50
2018-01-11T12:34:07.566Z,20.03
2018-01-11T12:36:35.070Z,20.10
2018-01-11T12:39:03.344Z,20.67
2018-01-11T12:41:31.650Z,19.70
2018-01-11T12:43:59.918Z,20.20
2018-01-11T12:46:28.214Z,19.80
2018-01-11T12:48:55.727Z,19.33
2018-01-11T12:51:23.249Z,19.63
2018-01-11T12:53:50.755Z,19.40
2018-01-11T12:56:18.265Z,20.37
2018-01-11T12:58:45.803Z,20.73
2018-01-11T13:01:13.311Z,20.27
2018-01-11T13:03:40.837Z,21.07
2018-01-11T13:06:08.342Z,22.10
2018-01-11T13:08:35.875Z,20.23
2018-01-11T13:11:03.383Z,19.13
2018-01-11T13:13:31.679Z,20.30
2018-01-11T13:15:59.187Z,19.27
2018-01-11T13:18:26.686Z,21.07
2018-01-11T13:20:54.979Z,20.17
2018-01-11T13:23:22.491Z,21.30
2018-01-11T13:25:51.527Z,19.87
2018-01-11T13:28:19.037Z,20.80
2018-01-11T13:30:47.347Z,21.00
2018-01-11T13:33:15.624Z,19.90
2018-01-11T13:35:43.143Z,20.90
2018-01-11T13:38:10.669Z,19.80
2018-01-11T13:40:38.195Z,21.13
2018-01-11T13:43:06.483Z,21.53
2018-01-11T13:45:33.983Z,20.67
2018-01-11T13:48:01.511Z,19.80
2018-01-11T13:50:29.021Z,21.20
2018-01-11T13:52:56.522Z,20.13
2018-01-11T13:55:24.044Z,20.63
2018-01-11T13:57:51.547Z,21.40
2018-01-11T14:00:19.070Z,23.90
2018-01-11T14:02:46.571Z,23.10
2018-01-11T14:05:14.095Z,23.00
2018-01-11T14:07:42.363Z,22.43
2018-01-11T14:10:09.863Z,22.40
2018-01-11T14:12:37.391Z,22.83
2018-01-11T14:15:05.657Z,23.00
2018-01-11T14:17:33.946Z,22.50
2018-01-11T14:20:02.222Z,26.03
2018-01-11T14:22:30.518Z,22.60
2018-01-11T14:24:58.018Z,22.63
2018-01-11T14:27:25.527Z,21.97
2018-01-11T14:29:53.815Z,22.23
2018-01-11T14:32:21.314Z,21.53
2018-01-11T14:34:48.835Z,23.23
2018-01-11T14:37:16.335Z,22.87
2018-01-11T14:39:43.858Z,24.13
2018-01-11T14:42:11.360Z,22.90
2018-01-11T14:44:38.859Z,22.50
2018-01-11T14:47:06.387Z,23.83
2018-01-11T14:49:33.891Z,23.70
2018-01-11T14:52:01.415Z,22.47
2018-01-11T14:54:29.683Z,24.50
2018-01-11T14:56:57.207Z,23.60
2018-01-11T14:59:25.576Z,25.77
2018-01-11T15:01:53.103Z,24.30
2018-01-11T15:04:20.602Z,23.33
2018-01-11T15:06:48.111Z,24.17
2018-01-11T15:09:16.402Z,23.53
2018-01-11T15:11:43.907Z,23.80
2018-01-11T15:14:11.431Z,23.97
2018-01-11T15:16:38.931Z,23.93
2018-01-11T15:19:06.454Z,24.23
2018-01-11T15:21:33.978Z,24.37
2018-01-11T15:24:02.267Z,23.57
2018-01-11T15:26:29.767Z,23.50
2018-01-11T15:28:57.271Z,25.20
2018-01-11T15:31:25.563Z,23.20
2018-01-11T15:33:53.066Z,23.53
2018-01-11T15:36:20.595Z,23.90
2018-01-11T15:38:48.094Z,21.90
2018-01-11T15:41:15.619Z,21.73
2018-01-11T15:43:43.120Z,23.07
2018-01-11T15:46:10.618Z,22.70
2018-01-11T15:48:38.143Z,22.60
2018-01-11T15:51:05.643Z,23.17
2018-01-11T15:53:33.162Z,23.47
2018-01-11T15:56:01.427Z,22.47
2018-01-11T15:58:28.950Z,22.97
2018-01-11T16:00:56.454Z,21.83
2018-01-11T16:03:24.723Z,21.50
2018-01-11T16:05:52.247Z,22.87
2018-01-11T16:08:19.746Z,22.50
2018-01-11T16:10:48.034Z,21.33
2018-01-11T16:13:16.307Z,21.70
2018-01-11T16:15:44.599Z,23.00
2018-01-11T16:18:12.099Z,22.93
2018-01-11T16:20:39.618Z,22.07
2018-01-11T16:23:07.118Z,22.00
2018-01-11T16:25:34.614Z,22.00
2018-01-11T16:28:02.903Z,22.70
2018-01-11T16:30:31.174Z,23.37
2018-01-11T16:32:58.698Z,22.93
2018-01-11T16:35:26.199Z,21.20
2018-01-11T16:37:53.722Z,23.20
2018-01-11T16:40:21.218Z,21.27
2018-01-11T16:42:48.742Z,20.03
2018-01-11T16:45:16.243Z,21.30
2018-01-11T16:47:43.742Z,21.43
2018-01-11T16:50:11.314Z,22.33
2018-01-11T16:52:38.823Z,22.27
2018-01-11T16:55:06.350Z,21.77
2018-01-11T16:57:34.622Z,22.00
2018-01-11T17:00:02.922Z,21.23
2018-01-11T17:02:30.481Z,21.80
2018-01-11T17:04:57.943Z,21.40
2018-01-11T17:07:25.466Z,45.80
2018-01-11T17:09:52.967Z,36.60
2018-01-11T17:12:20.495Z,34.00
2018-01-11T17:14:48.762Z,22.50
2018-01-11T17:17:16.282Z,23.10
2018-01-11T17:19:43.787Z,22.10
2018-01-11T17:22:12.062Z,25.17
2018-01-11T17:24:40.355Z,23.47
2018-01-11T17:27:08.623Z,20.40
2018-01-11T17:29:36.911Z,24.47
2018-01-11T17:32:05.174Z,20.67
2018-01-11T17:34:33.463Z,29.87
2018-01-11T17:37:00.971Z,21.47
2018-01-11T17:39:28.470Z,20.90
2018-01-11T17:41:56.758Z,22.10
2018-01-11T17:44:24.259Z,21.30
2018-01-11T17:46:51.788Z,22.63
2018-01-11T17:49:19.286Z,27.80
2018-01-11T17:51:46.807Z,23.53
2018-01-11T17:54:14.313Z,21.90
2018-01-11T17:56:41.810Z,21.97
2018-01-11T17:59:09.357Z,23.23
2018-01-11T18:01:37.615Z,22.33
2018-01-11T18:04:05.145Z,23.40
2018-01-11T18:06:32.657Z,22.17
2018-01-11T18:09:00.947Z,23.00
2018-01-11T18:11:28.449Z,23.47
2018-01-11T18:13:55.946Z,25.47
2018-01-11T18:16:24.234Z,23.10
2018-01-11T18:18:51.758Z,27.17
2018-01-11T18:21:19.264Z,25.07
2018-01-11T18:23:46.791Z,26.00
2018-01-11T18:26:15.079Z,24.90
2018-01-11T18:28:43.346Z,23.23
2018-01-11T18:31:11.693Z,23.53
2018-01-11T18:33:39.150Z,21.50
2018-01-11T18:36:06.678Z,22.27
2018-01-11T18:38:34.175Z,22.70
2018-01-11T18:41:01.699Z,22.40
2018-01-11T18:43:29.202Z,21.80
2018-01-11T18:45:56.703Z,28.77
2018-01-11T18:48:24.227Z,22.47
2018-01-11T18:50:52.499Z,26.00
2018-01-11T18:53:20.022Z,22.23
2018-01-11T18:55:47.522Z,21.40
2018-01-11T18:58:15.810Z,23.10
2018-01-11T19:00:44.075Z,21.87
2018-01-11T19:03:12.343Z,22.47
2018-01-11T19:05:39.867Z,22.43
2018-01-11T19:08:07.366Z,21.50
2018-01-11T19:10:35.655Z,24.10
2018-01-11T19:13:03.922Z,22.77
2018-01-11T19:15:32.211Z,22.97
2018-01-11T19:18:00.483Z,24.33
2018-01-11T19:20:28.775Z,22.20
2018-01-11T19:22:56.279Z,22.33
2018-01-11T19:25:23.774Z,24.80
2018-01-11T19:27:51.307Z,25.00
2018-01-11T19:30:18.807Z,24.60
2018-01-11T19:32:46.331Z,22.43
2018-01-11T19:35:13.831Z,24.00
2018-01-11T19:37:41.355Z,23.97
2018-01-11T19:40:08.855Z,25.33
2018-01-11T19:42:36.358Z,25.00
2018-01-11T19:45:03.891Z,29.23
2018-01-11T19:47:31.391Z,24.63
2018-01-11T19:49:59.683Z,24.13
2018-01-11T19:52:27.206Z,24.13
2018-01-11T19:54:54.758Z,25.07
2018-01-11T19:57:22.258Z,22.57
2018-01-11T19:59:50.546Z,24.23
2018-01-11T20:02:18.047Z,25.00
2018-01-11T20:04:45.551Z,24.10
2018-01-11T20:07:13.856Z,25.13
2018-01-11T20:09:41.364Z,23.97
2018-01-11T20:12:08.887Z,24.90
2018-01-11T20:14:36.388Z,25.10
2018-01-11T20:17:04.680Z,25.50
2018-01-11T20:19:32.190Z,23.97
2018-01-11T20:21:59.719Z,23.53
2018-01-11T20:24:27.225Z,24.97
2018-01-11T20:26:54.746Z,24.80
2018-01-11T20:29:22.275Z,24.03
2018-01-11T20:31:50.539Z,24.00
2018-01-11T20:34:18.827Z,23.37
2018-01-11T20:36:47.094Z,24.10
2018-01-11T20:39:15.387Z,23.80
2018-01-11T20:41:42.891Z,24.33
2018-01-11T20:44:10.415Z,23.33
2018-01-11T20:46:37.918Z,24.60
2018-01-11T20:49:05.418Z,23.50
2018-01-11T20:51:32.942Z,22.93
2018-01-11T20:54:00.448Z,24.20
2018-01-11T20:56:27.971Z,23.37
2018-01-11T20:58:55.478Z,23.87
2018-01-11T21:01:23.034Z,23.43
2018-01-11T21:03:50.543Z,23.67
2018-01-11T21:06:18.062Z,24.63
2018-01-11T21:08:45.587Z,24.30
2018-01-11T21:11:13.086Z,24.00
2018-01-11T21:13:40.611Z,24.67
2018-01-11T21:16:08.137Z,23.10
2018-01-11T21:18:35.654Z,25.00
2018-01-11T21:21:04.021Z,24.40
2018-01-11T21:23:31.547Z,25.97
2018-01-11T21:25:59.810Z,25.80
2018-01-11T21:28:27.335Z,25.63
2018-01-11T21:30:54.834Z,25.47
2018-01-11T21:33:23.094Z,26.23
2018-01-11T21:35:50.619Z,25.40
2018-01-11T21:38:18.119Z,25.03
2018-01-11T21:40:45.647Z,25.27
2018-01-11T21:43:13.150Z,25.57
2018-01-11T21:45:41.414Z,26.10
2018-01-11T21:48:08.935Z,25.67
2018-01-11T21:50:36.438Z,24.60
2018-01-11T21:53:04.735Z,23.03
2018-01-11T21:55:32.234Z,24.43
2018-01-11T21:57:59.754Z,24.37
2018-01-11T22:00:27.255Z,23.10
2018-01-11T22:02:54.756Z,25.03
2018-01-11T22:05:23.047Z,23.37
2018-01-11T22:07:50.545Z,23.63
2018-01-11T22:10:18.067Z,24.03
2018-01-11T22:12:45.570Z,24.00
2018-01-11T22:15:13.077Z,24.37
2018-01-11T22:17:40.602Z,23.13
2018-01-11T22:20:08.099Z,22.87
2018-01-11T22:22:35.619Z,23.80
2018-01-11T22:25:03.121Z,24.30
2018-01-11T22:27:30.646Z,24.73
2018-01-11T22:29:58.915Z,21.63
2018-01-11T22:32:26.415Z,23.57
2018-01-11T22:34:53.934Z,23.43
2018-01-11T22:37:21.434Z,22.63
2018-01-11T22:39:48.958Z,23.33
2018-01-11T22:42:17.223Z,23.47
2018-01-11T22:44:44.746Z,23.10
2018-01-11T22:47:12.246Z,22.77
2018-01-11T22:49:39.751Z,23.27
2018-01-11T22:52:07.279Z,22.57
2018-01-11T22:54:35.543Z,22.33
2018-01-11T22:57:03.835Z,22.70
2018-01-11T22:59:32.106Z,23.53
2018-01-11T23:02:00.395Z,22.97
2018-01-11T23:04:27.898Z,23.90
2018-01-11T23:06:55.425Z,22.90
2018-01-11T23:09:22.922Z,23.20
2018-01-11T23:11:50.423Z,22.80
2018-01-11T23:14:18.710Z,23.37
2018-01-11T23:16:46.218Z,23.23
2018-01-11T23:19:13.747Z,22.17
2018-01-11T23:21:41.296Z,23.30
2018-01-11T23:24:09.558Z,23.40
2018-01-11T23:26:37.353Z,22.07
2018-01-11T23:29:05.166Z,23.73
2018-01-11T23:31:33.447Z,23.20
2018-01-11T23:34:01.711Z,22.43
2018-01-11T23:36:29.230Z,22.27
2018-01-11T23:38:56.731Z,22.07
2018-01-11T23:41:25.027Z,22.80
2018-01-11T23:43:53.295Z,22.87
2018-01-11T23:46:21.588Z,21.73
2018-01-11T23:48:49.094Z,22.13
2018-01-11T23:51:17.388Z,22.40
2018-01-11T23:53:44.899Z,22.00
2018-01-11T23:56:12.403Z,24.10
2018-01-11T23:58:39.930Z,23.13
